Time;durP1;ratioP1;P1;durP2;ratioP2;P2;SDS_P1;SDS_P2;PMS_P1;PMS_P2;Temp;Humidity;BMP_temperature;BMP_pressure;BME280_temperature;BME280_humidity;BME280_pressure;Samples;Min_cycle;Max_cycle;Signal;HPM_P1;HPM_P2
2023/04/25 00:03:46;;;;;;;1999.90;999.90;;;8.00;99.90;;;;;;6711884;88;20193;-79
2023/04/25 00:13:46;;;;;;;1999.90;999.90;;;8.00;99.90;;;;;;6710754;88;20536;-79
2023/04/25 00:23:47;;;;;;;1999.90;999.90;;;7.90;99.90;;;;;;6714668;88;20202;-80
2023/04/25 00:33:47;;;;;;;1999.90;999.90;;;7.70;99.90;;;;;;6711703;88;20414;-80
2023/04/25 00:43:49;;;;;;;1999.90;999.90;;;7.70;99.90;;;;;;6710346;88;20227;-79
2023/04/25 00:53:50;;;;;;;1999.90;999.90;;;7.50;99.90;;;;;;6710641;88;20244;-79
2023/04/25 01:03:53;;;;;;;1999.90;999.90;;;7.30;99.90;;;;;;6710678;88;20696;-79
2023/04/25 01:13:53;;;;;;;1999.90;999.90;;;7.20;99.90;;;;;;6710558;88;20189;-80
2023/04/25 01:23:54;;;;;;;1999.90;999.90;;;7.10;99.90;;;;;;6710227;88;20209;-79
2023/04/25 01:33:54;;;;;;;1999.90;999.90;;;7.00;99.90;;;;;;6711314;88;20177;-79
2023/04/25 01:43:55;;;;;;;1999.90;999.90;;;7.00;99.90;;;;;;6710428;88;20272;-79
2023/04/25 01:53:56;;;;;;;1999.90;999.90;;;6.80;99.90;;;;;;6709946;88;20198;-79
2023/04/25 02:03:57;;;;;;;1999.90;999.90;;;6.70;99.90;;;;;;6710547;88;20274;-80
2023/04/25 02:13:58;;;;;;;1999.90;999.90;;;6.60;99.90;;;;;;6708899;88;20211;-80
2023/04/25 02:23:58;;;;;;;1999.90;999.90;;;6.50;99.90;;;;;;6710498;88;20223;-79
2023/04/25 02:33:59;;;;;;;1999.90;999.90;;;6.40;99.90;;;;;;6713172;88;20673;-78
2023/04/25 02:43:59;;;;;;;1999.90;999.90;;;6.30;99.90;;;;;;6725256;88;21774;-79
2023/04/25 02:54:00;;;;;;;1999.90;999.90;;;6.20;99.90;;;;;;6729824;88;20187;-79
2023/04/25 03:04:00;;;;;;;1999.90;999.90;;;6.20;99.90;;;;;;6726854;88;20277;-78
2023/04/25 03:14:01;;;;;;;1999.90;999.90;;;6.10;99.90;;;;;;6726052;88;20215;-79
2023/04/25 03:24:03;;;;;;;1999.90;999.90;;;6.00;99.90;;;;;;6720341;88;20193;-79
2023/04/25 03:34:04;;;;;;;1999.90;999.90;;;6.10;99.90;;;;;;6719951;88;20206;-78
2023/04/25 03:44:04;;;;;;;1999.90;999.90;;;6.00;99.90;;;;;;6717976;88;20718;-80
2023/04/25 03:54:05;;;;;;;1999.90;999.90;;;6.10;99.90;;;;;;6729613;88;20757;-80
2023/04/25 04:04:05;;;;;;;1999.90;999.90;;;6.10;99.90;;;;;;6727120;88;20226;-79
2023/04/25 04:14:06;;;;;;;1999.90;999.90;;;6.20;99.90;;;;;;6726141;88;20252;-80
2023/04/25 04:24:07;;;;;;;1999.90;999.90;;;6.20;99.90;;;;;;6726934;88;20231;-79
2023/04/25 04:34:07;;;;;;;1999.90;999.90;;;6.30;99.90;;;;;;6716610;88;20201;-79
2023/04/25 04:44:08;;;;;;;1999.90;999.90;;;6.40;99.90;;;;;;6730919;88;20500;-80
2023/04/25 04:54:09;;;;;;;1999.90;999.90;;;6.40;99.90;;;;;;6725815;88;20181;-79
2023/04/25 05:04:09;;;;;;;1999.90;999.90;;;6.50;99.90;;;;;;6721951;88;20190;-79
2023/04/25 05:14:10;;;;;;;1999.90;999.90;;;6.60;99.90;;;;;;6727633;88;20214;-78
2023/04/25 05:24:10;;;;;;;1999.90;999.90;;;6.60;99.90;;;;;;6723401;88;20636;-79
2023/04/25 05:34:11;;;;;;;1999.90;999.90;;;6.70;99.90;;;;;;6728310;88;20186;-79
2023/04/25 05:44:12;;;;;;;1999.90;999.90;;;6.90;99.90;;;;;;6726336;88;20289;-77
2023/04/25 05:54:12;;;;;;;1999.90;999.90;;;7.00;99.90;;;;;;6729773;88;20176;-78
2023/04/25 06:04:13;;;;;;;1999.90;999.90;;;7.20;99.90;;;;;;6726647;88;20240;-78
2023/04/25 06:14:13;;;;;;;1999.90;999.90;;;7.10;99.90;;;;;;6727953;88;20162;-79
2023/04/25 06:24:14;;;;;;;1999.90;999.90;;;7.30;99.90;;;;;;6742041;88;20234;-79
2023/04/25 06:34:15;;;;;;;1999.90;999.90;;;7.50;99.90;;;;;;6745478;88;20228;-79
2023/04/25 06:44:15;;;;;;;1999.90;999.90;;;7.70;99.90;;;;;;6730104;88;20200;-80
2023/04/25 06:54:17;;;;;;;1999.90;999.90;;;7.70;99.90;;;;;;6735398;88;20283;-80
2023/04/25 07:04:17;;;;;;;1999.90;999.90;;;7.80;99.90;;;;;;6716601;88;20238;-79
2023/04/25 07:14:18;;;;;;;1999.90;999.90;;;8.00;99.90;;;;;;6717599;88;20645;-79
2023/04/25 07:24:18;;;;;;;1999.90;999.90;;;8.90;99.90;;;;;;6719348;88;20203;-79
2023/04/25 07:34:19;;;;;;;1999.90;999.90;;;8.80;99.90;;;;;;6720615;88;20190;-80
2023/04/25 07:44:19;;;;;;;1999.90;999.90;;;8.60;99.90;;;;;;6718258;88;20206;-80
2023/04/25 07:54:20;;;;;;;1999.90;999.90;;;8.70;99.90;;;;;;6719491;88;20690;-81
2023/04/25 08:04:20;;;;;;;1999.90;999.90;;;8.90;99.90;;;;;;6719266;88;20200;-80
2023/04/25 08:14:21;;;;;;;1999.90;999.90;;;9.30;99.90;;;;;;6714639;88;20201;-78
2023/04/25 08:24:22;;;;;;;1999.90;999.90;;;9.70;99.90;;;;;;6715759;88;20211;-80
2023/04/25 08:34:23;;;;;;;1999.90;999.90;;;10.00;99.90;;;;;;6720413;88;20346;-80
2023/04/25 08:44:24;;;;;;;1999.90;999.90;;;9.90;99.90;;;;;;6718963;88;20197;-80
2023/04/25 08:54:27;;;;;;;1999.90;999.90;;;9.40;99.90;;;;;;6726109;88;20205;-78
2023/04/25 09:04:32;;;;;;;1999.90;999.90;;;9.20;99.90;;;;;;6739754;88;20241;-79
2023/04/25 09:14:33;;;;;;;1999.90;999.90;;;9.30;99.90;;;;;;6730946;88;20208;-80
2023/04/25 09:24:36;;;;;;;1999.90;999.90;;;10.10;99.90;;;;;;6724794;88;20713;-79
2023/04/25 09:34:41;;;;;;;1999.90;999.90;;;11.50;99.90;;;;;;6737719;88;20640;-80
2023/04/25 09:44:44;;;;;;;1999.90;999.90;;;11.30;99.90;;;;;;6732362;88;20215;-78
2023/04/25 09:54:45;;;;;;;1999.90;999.90;;;11.00;99.90;;;;;;6730124;88;20680;-79
2023/04/25 10:04:52;;;;;;;1999.90;999.90;;;10.50;99.90;;;;;;6726861;88;20198;-79
2023/04/25 10:14:54;;;;;;;1999.90;999.90;;;10.60;99.90;;;;;;6730684;88;20181;-79
2023/04/25 10:24:56;;;;;;;1999.90;999.90;;;11.10;99.90;;;;;;6731100;88;20218;-80
2023/04/25 10:34:57;;;;;;;1999.90;999.90;;;11.10;99.90;;;;;;6737715;88;20216;-79
2023/04/25 10:45:04;;;;;;;1999.90;999.90;;;10.60;99.90;;;;;;6734349;88;20190;-79
2023/04/25 10:55:05;;;;;;;1999.90;999.90;;;11.30;99.90;;;;;;6742511;88;20218;-79
2023/04/25 11:05:06;;;;;;;1999.90;999.90;;;11.30;99.90;;;;;;6733885;88;20630;-79
2023/04/25 11:15:07;;;;;;;1999.90;999.90;;;10.70;99.90;;;;;;6719480;88;20232;-80
2023/04/25 11:25:09;;;;;;;1999.90;999.90;;;10.40;99.90;;;;;;6734765;88;20197;-79
2023/04/25 11:35:10;;;;;;;1999.90;999.90;;;11.40;99.90;;;;;;6740305;88;20300;-80
2023/04/25 11:45:12;;;;;;;1999.90;999.90;;;13.10;99.90;;;;;;6736454;88;20197;-79
2023/04/25 11:55:15;;;;;;;1999.90;999.90;;;12.70;99.90;;;;;;6730085;88;20292;-79
2023/04/25 12:05:16;;;;;;;1999.90;999.90;;;11.60;99.90;;;;;;6734897;88;20854;-79
2023/04/25 12:15:21;;;;;;;1999.90;999.90;;;10.80;99.90;;;;;;6728817;88;20224;-80
2023/04/25 12:25:38;;;;;;;1999.90;999.90;;;10.50;99.90;;;;;;6735599;88;20178;-80
2023/04/25 12:35:38;;;;;;;1999.90;999.90;;;10.90;99.80;;;;;;6720744;88;20537;-80
2023/04/25 12:45:39;;;;;;;1999.90;999.90;;;11.50;99.20;;;;;;6720262;88;20479;-79
2023/04/25 12:55:40;;;;;;;1999.90;999.90;;;11.50;99.30;;;;;;6730692;88;20681;-80
2023/04/25 13:05:41;;;;;;;1999.90;999.90;;;11.60;99.70;;;;;;6738395;88;20279;-81
2023/04/25 13:15:42;;;;;;;1999.90;999.90;;;13.50;98.80;;;;;;6729767;88;20558;-80
2023/04/25 13:25:43;;;;;;;1999.90;999.90;;;13.80;97.70;;;;;;6717596;88;20190;-79
2023/04/25 13:35:46;;;;;;;1999.90;999.90;;;13.60;95.70;;;;;;6716644;88;20190;-79
2023/04/25 13:45:48;;;;;;;1999.90;999.90;;;12.60;97.00;;;;;;6734871;88;20709;-79
2023/04/25 13:55:50;;;;;;;1999.90;999.90;;;11.70;97.90;;;;;;6737970;88;20161;-79
2023/04/25 14:05:51;;;;;;;1999.90;999.90;;;11.20;99.90;;;;;;6727123;88;20292;-80
2023/04/25 14:15:51;;;;;;;1999.90;999.90;;;10.70;99.90;;;;;;6733228;88;20189;-81
2023/04/25 14:25:52;;;;;;;1999.90;999.90;;;11.00;99.60;;;;;;6725711;88;20195;-79
2023/04/25 14:35:53;;;;;;;1999.90;999.90;;;11.00;98.80;;;;;;6736723;88;20215;-79
2023/04/25 14:45:53;;;;;;;1999.90;999.90;;;11.40;98.90;;;;;;6726086;88;20234;-79
2023/04/25 15:06:57;;;;;;;1999.90;999.90;;;13.30;96.60;;;;;;6642886;89;20157;-81
2023/04/25 15:16:57;;;;;;;1999.90;999.90;;;13.40;96.00;;;;;;6631553;89;20369;-79
2023/04/25 15:26:58;;;;;;;1999.90;999.90;;;12.40;95.10;;;;;;6622785;89;20189;-79
2023/04/25 15:36:58;;;;;;;1999.90;999.90;;;11.90;95.80;;;;;;6625111;89;20855;-79
2023/04/25 15:47:01;;;;;;;1999.90;999.90;;;12.00;95.00;;;;;;6626047;89;20614;-80
2023/04/25 15:57:22;;;;;;;1999.90;999.90;;;12.00;94.40;;;;;;6708153;77;20178;-78
2023/04/25 16:07:23;;;;;;;1999.90;999.90;;;11.90;94.90;;;;;;6636403;88;20195;-80
2023/04/25 16:27:27;;;;;;;1999.90;999.90;;;11.80;96.60;;;;;;6631418;89;20552;-81
2023/04/25 16:38:08;;;;;;;1999.90;999.90;;;12.70;95.40;;;;;;6681599;78;20198;-81
2023/04/25 16:48:09;;;;;;;1999.90;999.90;;;13.40;94.90;;;;;;6743716;88;20154;-81
2023/04/25 16:58:13;;;;;;;1999.90;999.90;;;12.90;95.50;;;;;;6725637;88;20216;-80
2023/04/25 17:08:13;;;;;;;1999.90;999.90;;;12.10;95.50;;;;;;6718434;88;20681;-79
2023/04/25 17:18:14;;;;;;;1999.90;999.90;;;11.60;96.50;;;;;;6707863;88;20214;-79
2023/04/25 17:28:15;;;;;;;1999.90;999.90;;;11.20;95.90;;;;;;6707148;88;20289;-81
2023/04/25 17:38:15;;;;;;;1999.90;999.90;;;10.90;96.10;;;;;;6707737;88;20283;-80
2023/04/25 17:48:16;;;;;;;1999.90;999.90;;;10.70;97.20;;;;;;6705642;88;20200;-79
2023/04/25 17:58:17;;;;;;;1999.90;999.90;;;10.50;98.50;;;;;;6706377;88;20177;-80
2023/04/25 18:08:18;;;;;;;1999.90;999.90;;;10.00;99.90;;;;;;6705581;88;20789;-79
2023/04/25 18:18:19;;;;;;;1999.90;999.90;;;9.70;99.90;;;;;;6707293;88;20548;-83
2023/04/25 18:28:21;;;;;;;1999.90;999.90;;;9.60;99.90;;;;;;6703035;88;20186;-79
2023/04/25 18:38:21;;;;;;;1999.90;999.90;;;9.50;99.90;;;;;;6704084;88;20214;-80
2023/04/25 18:48:22;;;;;;;1999.90;999.90;;;9.60;99.90;;;;;;6709428;88;20343;-78
2023/04/25 18:58:22;;;;;;;1999.90;999.90;;;9.50;99.90;;;;;;6710377;88;20333;-79
2023/04/25 19:08:23;;;;;;;1999.90;999.90;;;9.30;99.90;;;;;;6712747;88;20214;-81
2023/04/25 19:18:24;;;;;;;1999.90;999.90;;;9.10;99.90;;;;;;6721188;88;20661;-79
2023/04/25 19:28:25;;;;;;;1999.90;999.90;;;8.90;99.90;;;;;;6719803;88;21072;-79
2023/04/25 19:38:25;;;;;;;1999.90;999.90;;;8.60;99.90;;;;;;6721771;88;21011;-78
2023/04/25 19:48:26;;;;;;;1999.90;999.90;;;8.40;99.90;;;;;;6723978;88;20206;-77
2023/04/25 19:58:28;;;;;;;1999.90;999.90;;;8.20;99.90;;;;;;6724559;88;20186;-79
2023/04/25 20:08:29;;;;;;;1999.90;999.90;;;8.00;99.90;;;;;;6723457;88;20428;-78
2023/04/25 20:18:39;;;;;;;1999.90;999.90;;;7.90;99.90;;;;;;6722981;88;20177;-78
2023/04/25 20:28:40;;;;;;;1999.90;999.90;;;7.70;99.90;;;;;;6717908;88;20223;-79
2023/04/25 20:38:41;;;;;;;1999.90;999.90;;;7.60;99.90;;;;;;6722801;88;21588;-77
2023/04/25 20:48:41;;;;;;;1999.90;999.90;;;7.30;99.90;;;;;;6718835;88;20215;-79
2023/04/25 20:58:42;;;;;;;1999.90;999.90;;;7.20;99.90;;;;;;6698684;77;20607;-76
2023/04/25 21:08:43;;;;;;;1999.90;999.90;;;6.90;99.90;;;;;;6685068;88;20200;-77
2023/04/25 21:18:43;;;;;;;1999.90;999.90;;;6.70;99.90;;;;;;6686691;88;20216;-77
2023/04/25 21:28:45;;;;;;;1999.90;999.90;;;6.70;99.90;;;;;;6683033;88;20323;-77
2023/04/25 21:38:46;;;;;;;1999.90;999.90;;;6.70;99.90;;;;;;6685571;88;20191;-76
2023/04/25 21:48:47;;;;;;;1999.90;999.90;;;6.70;99.90;;;;;;6686077;88;20216;-75
2023/04/25 21:58:47;;;;;;;1999.90;999.90;;;6.80;99.90;;;;;;6682888;88;20195;-76
2023/04/25 22:08:48;;;;;;;1999.90;999.90;;;6.80;99.90;;;;;;6681359;88;20694;-76
2023/04/25 22:18:50;;;;;;;1999.90;999.90;;;6.80;99.90;;;;;;6680423;88;20718;-76
2023/04/25 22:28:51;;;;;;;1999.90;999.90;;;6.90;99.90;;;;;;6680282;88;20207;-75
2023/04/25 22:38:52;;;;;;;1999.90;999.90;;;7.00;99.90;;;;;;6681576;88;20412;-76
2023/04/25 22:48:53;;;;;;;1999.90;999.90;;;7.00;99.90;;;;;;6678759;88;20232;-77
2023/04/25 22:58:53;;;;;;;1999.90;999.90;;;6.90;99.90;;;;;;6680882;88;20222;-76
2023/04/25 23:08:54;;;;;;;1999.90;999.90;;;6.70;99.90;;;;;;6679904;88;20287;-76
2023/04/25 23:18:54;;;;;;;1999.90;999.90;;;6.60;99.90;;;;;;6685897;88;20195;-78
2023/04/25 23:28:55;;;;;;;1999.90;999.90;;;6.50;99.90;;;;;;6686285;88;20588;-76
2023/04/25 23:38:55;;;;;;;1999.90;999.90;;;6.30;99.90;;;;;;6678456;88;20653;-76
2023/04/25 23:48:56;;;;;;;1999.90;999.90;;;6.10;99.90;;;;;;6684554;88;20183;-76
2023/04/25 23:58:57;;;;;;;1999.90;999.90;;;5.90;99.90;;;;;;6682071;88;20756;-76
